Airfield :
LOGIN :

Register | Disclaimer

   EN    FR    IT 

 










Legend :    VFR   Marginal VFR   IFR   Intensive IFR   Very Intensive IFR
Visi :
Ceiling :
>= 8 km
>= 3000ft
5 to 8 km
1000 to 3000 ft
1500m to 5 km
500 to 1000 ft
800 to 1500m
200 to 500 ft
< 800m
< 200 ft
Symbols :   Thunderstorms  Fog  Heavy snow  Heavy precipitations  Wind > 20 kt
SIGMETs :     Misc.  Thunderstorms  Icing  Turbulence  Mountain Waves  Volcanic Ashes







- Airport Elevation : 538 ft
- IATA code : TNF
- Download approach charts


LFPN - Toussus Le Noble

CURRENT METAR :
  • 240830Z AUTO 21010KT 9999 BKN048 21/13 Q1020 NOSIG

EXPIRED METARs :
  • 240800Z AUTO 23009KT 9999 OVC047 20/13 Q1020 NOSIG
  • 240730Z AUTO 23008KT 9999 OVC046 19/12 Q1020 NOSIG
  • 240700Z AUTO 22007KT 9999 FEW034 OVC047 18/12 Q1020 NOSIG
  • 240630Z AUTO 22007KT 9999 FEW031 OVC047 17/12 Q1020 NOSIG
  • 240600Z AUTO 21005KT 9999 OVC046 17/11 Q1020 NOSIG
  • 240530Z AUTO 22004KT 9999 OVC046 16/12 Q1020 NOSIG

Expired Forecast.
ATIS : +33 1 39 56 54 70
No reported NOTAMs for that airfield.



MET'MAP, your aeronautical weather chart ! - Copyright ORBIFLY December 2007 - Disclaimer

ORBIFLY MET'MAP TEAM :

Programming & Development : Alexandra Zaïnal
Concept & Development : Baudouin d'Aumeries
Co-Development & Prog : Marc-Olivier Méhu
Technical & hardware support : Manuel Goepfert

Contact : metmap@orbifly.com




SOURCES & CREDITS :

   NOAA